Time;durP1;ratioP1;P1;durP2;ratioP2;P2;SDS_P1;SDS_P2;PMS_P1;PMS_P2;Temp;Humidity;BMP_temperature;BMP_pressure;BME280_temperature;BME280_humidity;BME280_pressure;Samples;Min_cycle;Max_cycle;Signal;HPM_P1;HPM_P2
2022/06/10 00:01:09;;;;;;;9.50;3.15;;;13.60;1.00;;;;;;5048298;28;20439;-56
2022/06/10 00:03:35;;;;;;;6.68;2.90;;;13.60;1.00;;;;;;5049408;28;20524;-56
2022/06/10 00:06:04;;;;;;;8.38;3.00;;;13.50;51.80;;;;;;5049293;28;20412;-57
2022/06/10 00:08:41;;;;;;;9.07;3.00;;;13.40;99.90;;;;;;5049005;28;20408;-56
2022/06/10 00:11:08;;;;;;;7.80;3.10;;;13.40;99.90;;;;;;5048079;28;20413;-56
2022/06/10 00:13:37;;;;;;;7.93;3.33;;;13.40;99.90;;;;;;5048464;28;20556;-56
2022/06/10 00:16:04;;;;;;;6.40;2.90;;;13.40;99.90;;;;;;5048781;28;20381;-54
2022/06/10 00:18:32;;;;;;;8.50;3.10;;;11.70;99.90;;;;;;5048557;28;20432;-56
2022/06/10 00:21:00;;;;;;;10.43;4.15;;;13.10;99.90;;;;;;5049311;28;20393;-57
2022/06/10 00:23:26;;;;;;;7.50;3.20;;;13.00;99.90;;;;;;5051786;28;20611;-56
2022/06/10 00:25:51;;;;;;;8.57;3.70;;;12.90;1.00;;;;;;5052804;28;20868;-56
2022/06/10 00:28:17;;;;;;;6.25;2.85;;;12.80;1.00;;;;;;5051962;28;20476;-54
2022/06/10 00:30:43;;;;;;;8.00;3.40;;;12.80;1.00;;;;;;5053021;28;20948;-55
2022/06/10 00:33:09;;;;;;;8.23;3.70;;;12.80;1.00;;;;;;5051565;28;20408;-54
2022/06/10 00:35:36;;;;;;;7.15;2.88;;;12.90;1.00;;;;;;5052773;28;20381;-56
2022/06/10 00:38:04;;;;;;;9.05;3.28;;;12.90;1.00;;;;;;5052806;28;20384;-56
2022/06/10 00:40:34;;;;;;;9.20;3.20;;;13.00;99.90;;;;;;5052032;28;20404;-56
2022/06/10 00:43:00;;;;;;;10.07;3.50;;;13.00;1.00;;;;;;5052257;28;20421;-56
2022/06/10 00:45:45;;;;;;;8.98;3.20;;;13.00;99.90;;;;;;5051842;28;20397;-56
2022/06/10 00:48:15;;;;;;;8.75;3.60;;;13.00;99.90;;;;;;5051076;28;20397;-55
2022/06/10 00:50:43;;;;;;;9.40;3.75;;;13.00;99.90;;;;;;5052800;28;20445;-55
2022/06/10 00:53:14;;;;;;;7.28;3.50;;;13.00;99.90;;;;;;5051558;28;20409;-55
2022/06/10 00:55:42;;;;;;;6.82;3.47;;;12.90;99.90;;;;;;5052681;28;20386;-56
2022/06/10 00:58:33;;;;;;;8.47;3.50;;;12.90;99.90;;;;;;5051478;28;20397;-54
2022/06/10 01:01:00;;;;;;;8.43;3.72;;;12.90;99.90;;;;;;5052246;28;20383;-54
2022/06/10 01:03:26;;;;;;;7.60;3.80;;;12.90;99.90;;;;;;5051503;28;21001;-55
2022/06/10 01:05:51;;;;;;;7.80;3.83;;;12.90;99.90;;;;;;5051710;28;20398;-55
2022/06/10 01:08:19;;;;;;;6.82;3.55;;;12.90;99.90;;;;;;5033168;28;20464;-53
2022/06/10 01:11:07;;;;;;;7.05;3.40;;;12.90;99.90;;;;;;5051685;28;20402;-55
2022/06/10 01:14:04;;;;;;;8.48;4.00;;;12.90;99.90;;;;;;5052174;28;20397;-56
2022/06/10 01:16:41;;;;;;;8.13;3.90;;;12.80;99.90;;;;;;5051323;28;20381;-56
2022/06/10 01:19:26;;;;;;;7.00;3.20;;;12.80;99.90;;;;;;5031789;28;20475;-53
2022/06/10 01:22:16;;;;;;;6.45;3.20;;;12.80;1.00;;;;;;5050233;28;20819;-55
2022/06/10 01:25:16;;;;;;;8.23;3.37;;;12.80;1.00;;;;;;5051275;28;20409;-55
2022/06/10 01:27:50;;;;;;;9.00;4.00;;;12.70;1.00;;;;;;5051640;28;20409;-55
2022/06/10 01:30:35;;;;;;;7.95;4.03;;;12.60;1.00;;;;;;5050523;28;20404;-55
2022/06/10 01:33:22;;;;;;;10.07;3.70;;;12.60;1.00;;;;;;5050322;28;20899;-55
2022/06/10 01:35:53;;;;;;;10.57;4.15;;;12.60;1.00;;;;;;5050932;28;20818;-55
2022/06/10 01:38:36;;;;;;;10.55;4.00;;;12.50;1.00;;;;;;5051073;28;20385;-55
2022/06/10 01:41:20;;;;;;;8.38;4.03;;;12.50;1.00;;;;;;5051512;28;20896;-55
2022/06/10 01:44:11;;;;;;;8.30;3.67;;;12.50;1.00;;;;;;5051043;28;20476;-55
2022/06/10 01:46:44;;;;;;;9.30;4.10;;;12.60;1.00;;;;;;5051294;28;20910;-54
2022/06/10 01:49:29;;;;;;;7.28;3.70;;;12.60;1.00;;;;;;5050368;28;20439;-55
2022/06/10 01:52:13;;;;;;;9.27;4.32;;;12.60;1.00;;;;;;5031413;28;20415;-55
2022/06/10 01:54:59;;;;;;;9.05;4.13;;;12.50;1.00;;;;;;5045383;28;20401;-54
2022/06/10 01:57:47;;;;;;;11.68;4.22;;;12.40;1.00;;;;;;5050217;28;20396;-55
2022/06/10 02:00:18;;;;;;;9.20;3.80;;;12.50;1.00;;;;;;4998628;28;20470;-54
2022/06/10 02:03:43;;;;;;;8.68;4.13;;;12.40;1.00;;;;;;5050984;28;20473;-55
2022/06/10 02:06:16;;;;;;;8.23;4.00;;;12.50;1.00;;;;;;4925439;29;20411;-57
2022/06/10 02:08:49;;;;;;;7.50;3.80;;;12.40;1.00;;;;;;5028472;28;20412;-54
2022/06/10 02:11:18;;;;;;;10.27;4.40;;;12.40;1.00;;;;;;5048715;28;20443;-55
2022/06/10 02:13:52;;;;;;;8.90;3.67;;;12.40;1.00;;;;;;5050465;28;20398;-55
2022/06/10 02:16:21;;;;;;;8.33;3.83;;;12.40;1.00;;;;;;5048958;28;20464;-55
2022/06/10 02:18:58;;;;;;;11.32;3.90;;;12.40;1.00;;;;;;5049624;28;20382;-54
2022/06/10 02:21:38;;;;;;;13.43;3.97;;;12.40;1.00;;;;;;5049262;28;20644;-54
2022/06/10 02:24:10;;;;;;;8.32;3.90;;;12.40;1.00;;;;;;5049152;28;20417;-55
2022/06/10 02:26:38;;;;;;;7.75;3.97;;;12.30;1.00;;;;;;5039588;28;20397;-55
2022/06/10 02:29:10;;;;;;;8.73;3.90;;;12.20;1.00;;;;;;5049672;28;20459;-55
2022/06/10 02:31:44;;;;;;;11.20;3.90;;;12.20;1.00;;;;;;5049537;28;20412;-54
2022/06/10 02:34:09;;;;;;;8.48;4.68;;;12.30;1.00;;;;;;5048876;28;20829;-54
2022/06/10 02:36:49;;;;;;;9.03;4.30;;;12.30;1.00;;;;;;5049710;28;20393;-55
2022/06/10 02:39:33;;;;;;;11.35;4.20;;;12.30;1.00;;;;;;5048249;28;20425;-55
2022/06/10 02:42:03;;;;;;;11.73;4.30;;;12.20;1.00;;;;;;5047683;28;20435;-55
2022/06/10 02:44:40;;;;;;;12.23;4.10;;;12.10;1.00;;;;;;5048629;28;20860;-55
2022/06/10 02:47:29;;;;;;;9.10;4.38;;;12.10;1.00;;;;;;5048567;28;20439;-53
2022/06/10 02:49:55;;;;;;;9.00;4.13;;;12.00;1.00;;;;;;5039814;28;20416;-55
2022/06/10 02:52:26;;;;;;;10.20;4.43;;;12.10;1.00;;;;;;5047876;28;20429;-55
2022/06/10 02:54:51;;;;;;;9.20;4.00;;;12.10;1.00;;;;;;5046747;28;20416;-55
2022/06/10 02:57:21;;;;;;;12.60;4.20;;;12.20;1.00;;;;;;5048710;28;20389;-54
2022/06/10 03:02:51;;;;;;;10.30;4.05;;;12.20;1.00;;;;;;5046663;28;20475;-55
2022/06/10 03:05:34;;;;;;;11.85;4.20;;;12.20;1.00;;;;;;5046336;28;20374;-60
2022/06/10 03:08:12;;;;;;;8.20;4.20;;;12.10;1.00;;;;;;5047404;28;20544;-55
2022/06/10 03:10:52;;;;;;;11.07;4.57;;;12.20;1.00;;;;;;5047289;28;20413;-55
2022/06/10 03:13:37;;;;;;;11.30;4.40;;;12.20;1.00;;;;;;5048718;28;20530;-55
2022/06/10 03:16:12;;;;;;;9.10;4.30;;;12.20;1.00;;;;;;5048141;28;20390;-55
2022/06/10 03:19:19;;;;;;;9.60;3.92;;;12.10;1.00;;;;;;5047807;28;20751;-55
2022/06/10 03:21:55;;;;;;;9.02;4.20;;;12.20;1.00;;;;;;5047767;28;20502;-55
2022/06/10 03:24:34;;;;;;;10.75;4.53;;;12.20;1.00;;;;;;5046678;28;20424;-55
2022/06/10 03:27:23;;;;;;;11.77;5.20;;;12.20;1.00;;;;;;5047805;28;20393;-55
2022/06/10 03:29:56;;;;;;;9.40;4.50;;;12.10;1.00;;;;;;5036382;28;20408;-55
2022/06/10 03:32:27;;;;;;;8.63;4.30;;;12.10;1.00;;;;;;5048238;28;20417;-55
2022/06/10 03:35:27;;;;;;;11.00;4.47;;;12.10;1.00;;;;;;5048125;28;20838;-55
2022/06/10 03:37:54;;;;;;;9.45;4.50;;;12.10;1.00;;;;;;5046154;28;20436;-55
2022/06/10 03:40:24;;;;;;;10.85;4.20;;;12.00;1.00;;;;;;5047345;28;20393;-56
2022/06/10 03:42:53;;;;;;;10.23;5.20;;;12.10;1.00;;;;;;5048115;28;20385;-54
2022/06/10 03:45:25;;;;;;;11.70;4.70;;;12.20;1.00;;;;;;5047762;28;20397;-55
2022/06/10 03:47:51;;;;;;;11.07;4.60;;;12.20;1.00;;;;;;5048087;28;20479;-55
2022/06/10 03:50:21;;;;;;;10.07;4.63;;;12.20;1.00;;;;;;5047065;28;20393;-55
2022/06/10 03:52:47;;;;;;;9.77;4.40;;;12.40;1.00;;;;;;5048118;28;20807;-55
2022/06/10 03:55:18;;;;;;;11.10;4.75;;;12.40;1.00;;;;;;5047042;28;20421;-55
2022/06/10 03:57:45;;;;;;;10.48;4.70;;;12.50;1.00;;;;;;5047750;28;20463;-55
2022/06/10 04:00:24;;;;;;;10.18;4.72;;;12.50;1.00;;;;;;5047924;28;20380;-53
2022/06/10 04:02:50;;;;;;;10.13;4.55;;;12.50;1.00;;;;;;5039025;28;20389;-56
2022/06/10 04:05:17;;;;;;;10.27;4.97;;;12.60;1.00;;;;;;5047252;28;20466;-55
2022/06/10 04:07:43;;;;;;;8.95;4.20;;;12.70;1.00;;;;;;5048479;28;20385;-55
2022/06/10 04:10:15;;;;;;;10.95;4.93;;;12.80;1.00;;;;;;5047456;28;20471;-53
2022/06/10 04:12:42;;;;;;;10.77;4.40;;;12.90;1.00;;;;;;5035889;28;20451;-55
2022/06/10 04:15:08;;;;;;;12.30;5.50;;;12.90;1.00;;;;;;5047913;28;20755;-53
2022/06/10 04:17:34;;;;;;;10.40;4.83;;;12.90;1.00;;;;;;5045431;28;20385;-55
2022/06/10 04:20:00;;;;;;;11.83;5.63;;;13.10;1.00;;;;;;5047786;28;20456;-55
2022/06/10 04:22:27;;;;;;;13.40;5.07;;;13.00;1.00;;;;;;5046978;28;20806;-55
2022/06/10 04:24:53;;;;;;;12.20;6.18;;;13.10;1.00;;;;;;5038287;28;20972;-55
2022/06/10 04:27:19;;;;;;;11.57;5.25;;;13.00;1.00;;;;;;5047008;28;20770;-55
2022/06/10 04:29:45;;;;;;;11.57;5.30;;;13.00;1.00;;;;;;5048165;28;20374;-54
2022/06/10 04:32:11;;;;;;;11.90;5.97;;;13.10;1.00;;;;;;5047722;28;20404;-52
2022/06/10 04:34:36;;;;;;;12.48;5.50;;;13.20;1.00;;;;;;5047306;28;20732;-55
2022/06/10 04:37:04;;;;;;;10.67;5.60;;;13.20;1.00;;;;;;5047733;28;20393;-55
2022/06/10 04:39:29;;;;;;;14.10;6.45;;;13.30;1.00;;;;;;5046881;28;20443;-54
2022/06/10 04:41:55;;;;;;;12.40;6.40;;;13.30;1.00;;;;;;5047082;28;20492;-55
2022/06/10 04:44:21;;;;;;;13.48;6.35;;;13.30;1.00;;;;;;5047128;28;20457;-56
2022/06/10 04:46:47;;;;;;;13.50;6.17;;;13.30;1.00;;;;;;5048027;28;20400;-55
2022/06/10 04:49:13;;;;;;;13.60;6.77;;;13.30;1.00;;;;;;5047120;28;20396;-55
2022/06/10 04:51:39;;;;;;;13.13;6.30;;;13.50;1.00;;;;;;5047668;28;21080;-55
2022/06/10 04:54:06;;;;;;;10.75;5.90;;;13.70;1.00;;;;;;5047716;28;20390;-55
2022/06/10 04:56:32;;;;;;;12.27;6.00;;;14.30;1.00;;;;;;5044551;28;20494;-57
2022/06/10 04:58:57;;;;;;;12.30;5.55;;;15.10;1.00;;;;;;5047594;28;20870;-56
2022/06/10 05:01:23;;;;;;;11.67;5.00;;;16.10;99.90;;;;;;5047086;28;20388;-56
2022/06/10 05:03:49;;;;;;;10.43;5.22;;;16.90;1.00;;;;;;5047747;28;20415;-56
2022/06/10 05:06:14;;;;;;;10.73;4.57;;;17.70;99.90;;;;;;5045982;28;20522;-56
2022/06/10 05:08:40;;;;;;;8.90;4.60;;;18.40;6.90;;;;;;5050915;28;20804;-56
2022/06/10 05:11:07;;;;;;;8.98;4.63;;;19.20;1.00;;;;;;5051347;28;20409;-56
2022/06/10 05:13:34;;;;;;;10.00;4.77;;;19.70;1.00;;;;;;5050766;28;20407;-56
2022/06/10 05:16:01;;;;;;;10.15;4.65;;;19.90;1.00;;;;;;5052175;28;20377;-57
2022/06/10 05:18:26;;;;;;;10.27;4.70;;;20.80;1.00;;;;;;5031213;28;20398;-57
2022/06/10 05:20:53;;;;;;;10.37;4.50;;;22.10;1.00;;;;;;5050905;28;20397;-56
2022/06/10 05:23:21;;;;;;;11.10;4.70;;;22.80;99.90;;;;;;5050088;28;20499;-56
2022/06/10 05:25:47;;;;;;;10.80;4.90;;;23.40;99.90;;;;;;5053009;28;20397;-56
2022/06/10 05:28:13;;;;;;;10.30;5.15;;;23.80;99.90;;;;;;5051853;28;20904;-56
2022/06/10 05:30:40;;;;;;;13.93;6.05;;;24.20;99.90;;;;;;5053173;28;20414;-58
2022/06/10 05:33:07;;;;;;;8.60;6.40;;;24.80;99.90;;;;;;5063145;28;20399;-56
2022/06/10 05:35:34;;;;;;;10.70;6.17;;;25.50;99.90;;;;;;5049286;28;20393;-57
2022/06/10 05:38:00;;;;;;;9.93;7.00;;;25.90;99.90;;;;;;5058724;28;20870;-56
2022/06/10 05:40:28;;;;;;;9.23;6.97;;;26.00;99.90;;;;;;5046677;28;20910;-57
2022/06/10 05:42:54;;;;;;;10.23;6.53;;;25.50;99.90;;;;;;5048177;28;20428;-56
2022/06/10 05:45:21;;;;;;;12.18;7.28;;;25.50;99.90;;;;;;5043173;28;20382;-57
2022/06/10 05:47:50;;;;;;;10.88;7.55;;;25.30;99.90;;;;;;5049517;28;20450;-56
2022/06/10 05:50:20;;;;;;;12.40;7.90;;;26.20;99.90;;;;;;5049147;28;20397;-57
2022/06/10 05:52:47;;;;;;;11.40;7.30;;;27.10;99.90;;;;;;5032579;28;20468;-56
2022/06/10 05:55:13;;;;;;;9.85;7.40;;;27.30;99.90;;;;;;5049684;28;20494;-54
2022/06/10 05:57:39;;;;;;;10.63;7.38;;;27.20;99.90;;;;;;5056096;28;20395;-57
2022/06/10 06:00:17;;;;;;;11.43;7.60;;;26.60;99.90;;;;;;5059449;28;20387;-56
2022/06/10 06:02:43;;;;;;;10.77;7.10;;;26.30;99.90;;;;;;5065979;28;20403;-57
2022/06/10 06:05:12;;;;;;;11.13;7.27;;;26.70;99.90;;;;;;5045323;28;20489;-55
2022/06/10 06:07:40;;;;;;;12.07;7.40;;;27.60;99.90;;;;;;5056169;28;21214;-57
2022/06/10 06:10:07;;;;;;;10.33;6.50;;;28.00;99.90;;;;;;5056839;28;20394;-56
2022/06/10 06:12:32;;;;;;;10.23;7.03;;;27.90;99.90;;;;;;5056098;28;20902;-57
2022/06/10 06:14:58;;;;;;;10.63;6.47;;;28.50;99.90;;;;;;5044991;28;20409;-54
2022/06/10 06:17:23;;;;;;;8.60;6.93;;;29.00;99.90;;;;;;5053974;28;20399;-54
2022/06/10 06:19:49;;;;;;;9.73;5.07;;;28.80;99.90;;;;;;5057267;28;20375;-55
2022/06/10 06:22:16;;;;;;;10.75;4.70;;;29.40;99.90;;;;;;5048858;28;20401;-54
2022/06/10 06:24:42;;;;;;;9.73;4.50;;;29.60;99.90;;;;;;5050032;28;20901;-54
2022/06/10 06:27:12;;;;;;;9.73;6.72;;;29.50;99.90;;;;;;5050664;28;20385;-55
2022/06/10 06:29:37;;;;;;;12.10;6.63;;;28.90;99.90;;;;;;5049536;28;20730;-55
2022/06/10 06:32:03;;;;;;;11.18;6.53;;;28.50;99.90;;;;;;5065481;28;20410;-55
2022/06/10 06:34:29;;;;;;;9.68;4.60;;;29.30;99.90;;;;;;5052119;28;20493;-55
2022/06/10 06:36:56;;;;;;;12.40;7.95;;;30.20;99.90;;;;;;5059512;28;20413;-57
2022/06/10 06:39:26;;;;;;;9.18;3.50;;;30.50;99.90;;;;;;5048653;28;20440;-59
2022/06/10 06:41:53;;;;;;;9.57;4.70;;;29.70;99.90;;;;;;5032433;28;20502;-54
2022/06/10 06:44:19;;;;;;;9.35;6.18;;;29.20;99.90;;;;;;5048711;28;20401;-55
2022/06/10 06:46:45;;;;;;;9.00;6.30;;;29.00;99.90;;;;;;5051418;28;20390;-58
2022/06/10 06:49:25;;;;;;;11.00;7.22;;;28.90;99.90;;;;;;5032097;28;20492;-53
2022/06/10 06:51:51;;;;;;;8.20;6.45;;;30.00;99.90;;;;;;5050026;28;20759;-56
2022/06/10 06:54:17;;;;;;;8.27;3.05;;;31.20;99.90;;;;;;5048902;28;20409;-56
2022/06/10 06:56:43;;;;;;;9.32;2.97;;;30.90;99.90;;;;;;5031914;28;20459;-55
2022/06/10 06:59:09;;;;;;;8.23;4.63;;;31.30;99.90;;;;;;5049638;28;20435;-56
2022/06/10 07:01:35;;;;;;;9.57;6.55;;;30.90;99.90;;;;;;5049059;28;20401;-55
2022/06/10 07:04:03;;;;;;;9.90;6.60;;;30.50;99.90;;;;;;5048965;28;20394;-55
2022/06/10 07:06:29;;;;;;;9.93;6.40;;;29.50;99.90;;;;;;5031016;28;20423;-55
2022/06/10 07:08:55;;;;;;;10.23;7.13;;;29.00;99.90;;;;;;5031870;28;20393;-55
2022/06/10 07:11:21;;;;;;;13.13;7.13;;;29.00;99.90;;;;;;5031137;28;20401;-55
2022/06/10 07:13:46;;;;;;;11.23;6.97;;;29.50;99.90;;;;;;5049581;28;20426;-55
2022/06/10 07:16:12;;;;;;;9.47;6.23;;;29.00;99.90;;;;;;5049176;28;21222;-53
2022/06/10 07:18:38;;;;;;;9.90;5.93;;;29.70;99.90;;;;;;5049168;28;20486;-55
2022/06/10 07:21:04;;;;;;;10.40;7.30;;;29.60;99.90;;;;;;5049334;28;20386;-55
2022/06/10 07:23:30;;;;;;;8.90;6.10;;;29.70;99.90;;;;;;5048461;28;20413;-55
2022/06/10 07:25:55;;;;;;;10.00;5.80;;;29.90;99.90;;;;;;5049973;28;20393;-55
2022/06/10 07:28:22;;;;;;;9.13;6.60;;;30.30;99.90;;;;;;5048850;28;20465;-56
2022/06/10 07:30:48;;;;;;;8.70;6.30;;;30.30;99.90;;;;;;5030448;28;20428;-55
2022/06/10 07:33:14;;;;;;;9.48;6.80;;;30.30;99.90;;;;;;5048785;28;20484;-54
2022/06/10 07:35:40;;;;;;;9.65;6.50;;;29.70;99.90;;;;;;5049200;28;20462;-54
2022/06/10 07:38:07;;;;;;;9.27;6.18;;;28.50;99.90;;;;;;5049234;28;20381;-55
2022/06/10 07:43:22;;;;;;;7.90;5.30;;;29.00;99.90;;;;;;5048637;28;21070;-55
2022/06/10 07:45:49;;;;;;;9.27;5.60;;;29.20;99.90;;;;;;5049622;28;20394;-56
2022/06/10 07:48:15;;;;;;;9.32;5.53;;;28.90;99.90;;;;;;5048371;28;20388;-54
2022/06/10 07:50:43;;;;;;;8.90;5.50;;;28.90;99.90;;;;;;5049207;28;20891;-55
2022/06/10 07:53:10;;;;;;;9.20;5.70;;;28.90;99.90;;;;;;5049178;28;20409;-55
2022/06/10 07:55:37;;;;;;;9.15;5.65;;;29.50;99.90;;;;;;5048251;28;20393;-55
2022/06/10 07:58:04;;;;;;;8.85;5.40;;;29.70;99.90;;;;;;5048497;28;20378;-56
2022/06/10 08:00:30;;;;;;;9.05;6.18;;;30.40;99.90;;;;;;5048165;28;20424;-55
2022/06/10 08:02:57;;;;;;;9.97;5.43;;;30.60;99.90;;;;;;5048756;28;20378;-56
2022/06/10 08:05:23;;;;;;;8.90;5.55;;;30.90;99.90;;;;;;5047854;28;20476;-55
2022/06/10 08:07:48;;;;;;;9.77;6.97;;;30.60;99.90;;;;;;5049369;28;20477;-57
2022/06/10 08:10:24;;;;;;;10.50;5.45;;;31.10;99.90;;;;;;5048049;28;20381;-55
2022/06/10 08:12:50;;;;;;;7.45;2.83;;;30.30;99.90;;;;;;5049151;28;20868;-57
2022/06/10 08:15:17;;;;;;;8.25;3.25;;;31.50;99.90;;;;;;5030840;28;20459;-56
2022/06/10 08:17:43;;;;;;;8.10;2.30;;;31.90;99.90;;;;;;5049331;28;20386;-57
2022/06/10 08:23:13;;;;;;;11.55;6.10;;;31.80;99.90;;;;;;5047534;28;20490;-55
2022/06/10 08:25:39;;;;;;;7.90;5.30;;;30.90;99.90;;;;;;5030333;28;20404;-56
2022/06/10 08:28:05;;;;;;;7.60;5.40;;;30.30;99.90;;;;;;5048822;28;20486;-57
2022/06/10 08:30:33;;;;;;;10.00;5.40;;;30.80;99.90;;;;;;5047695;28;21348;-57
2022/06/10 08:32:59;;;;;;;8.35;5.75;;;31.50;99.90;;;;;;5048860;28;20385;-57
2022/06/10 08:35:25;;;;;;;10.30;4.40;;;32.30;99.90;;;;;;5047641;28;20381;-57
2022/06/10 08:37:50;;;;;;;10.17;6.00;;;31.80;99.90;;;;;;5048561;28;20396;-56
2022/06/10 08:40:32;;;;;;;7.90;5.67;;;30.90;99.90;;;;;;5047852;28;20897;-56
2022/06/10 08:43:07;;;;;;;7.97;5.20;;;31.00;99.90;;;;;;5051283;28;20408;-56
2022/06/10 08:45:42;;;;;;;8.68;6.07;;;30.90;99.90;;;;;;5051304;28;20373;-56
2022/06/10 08:48:14;;;;;;;7.90;5.33;;;30.80;99.90;;;;;;5052681;28;20461;-57
2022/06/10 08:50:50;;;;;;;9.10;6.00;;;31.20;99.90;;;;;;5051912;28;20416;-56
2022/06/10 08:53:18;;;;;;;8.45;5.20;;;31.20;99.90;;;;;;5051363;28;20455;-55
2022/06/10 08:56:06;;;;;;;8.60;6.28;;;31.50;99.90;;;;;;5052274;28;20393;-56
2022/06/10 08:58:38;;;;;;;11.13;5.20;;;31.70;99.90;;;;;;5051300;28;20402;-57
2022/06/10 09:01:16;;;;;;;8.70;5.40;;;32.20;99.90;;;;;;5034372;28;20428;-56
2022/06/10 09:03:48;;;;;;;7.63;2.50;;;32.90;99.90;;;;;;5052110;28;20862;-57
2022/06/10 09:06:31;;;;;;;9.35;4.88;;;33.80;99.90;;;;;;5051702;28;20382;-56
2022/06/10 09:09:01;;;;;;;8.00;2.70;;;34.80;99.90;;;;;;5052158;28;20866;-57
2022/06/10 09:11:57;;;;;;;8.07;2.40;;;34.50;99.90;;;;;;5050923;28;20408;-61
2022/06/10 09:14:26;;;;;;;8.57;3.05;;;34.90;99.90;;;;;;5051462;28;20384;-57
2022/06/10 09:17:19;;;;;;;9.02;2.50;;;34.20;99.90;;;;;;5051987;28;20378;-57
2022/06/10 09:20:22;;;;;;;12.50;5.70;;;32.50;99.90;;;;;;5051728;28;20413;-57
2022/06/10 09:22:51;;;;;;;10.00;5.55;;;32.30;99.90;;;;;;5051683;28;20905;-57
2022/06/10 09:25:37;;;;;;;11.70;5.40;;;32.50;99.90;;;;;;5051252;28;20386;-56
2022/06/10 09:28:03;;;;;;;9.70;4.80;;;32.30;99.90;;;;;;5051687;28;20381;-57
2022/06/10 09:30:43;;;;;;;8.55;4.90;;;32.50;1.00;;;;;;5050838;28;20378;-57
2022/06/10 09:33:20;;;;;;;9.25;4.90;;;32.70;99.90;;;;;;5054706;28;20398;-57
2022/06/10 09:36:13;;;;;;;8.52;5.68;;;33.00;99.90;;;;;;5050270;28;20940;-57
2022/06/10 09:39:02;;;;;;;9.93;6.60;;;32.70;99.90;;;;;;5040514;28;20424;-57
2022/06/10 09:41:52;;;;;;;10.30;6.25;;;32.10;99.90;;;;;;5048157;28;20380;-57
2022/06/10 09:44:31;;;;;;;8.35;5.57;;;32.30;99.90;;;;;;5049974;28;20719;-56
2022/06/10 09:47:35;;;;;;;8.80;5.65;;;32.30;99.90;;;;;;5049130;28;20492;-59
2022/06/10 09:50:15;;;;;;;10.00;6.20;;;32.70;99.90;;;;;;5050614;28;21011;-56
2022/06/10 09:53:17;;;;;;;9.10;5.10;;;33.30;99.90;;;;;;5049316;28;20842;-57
2022/06/10 09:56:06;;;;;;;8.10;5.00;;;33.60;99.90;;;;;;5048980;28;20405;-56
2022/06/10 09:59:02;;;;;;;7.70;4.93;;;32.50;99.90;;;;;;5048424;28;20401;-57
2022/06/10 10:01:46;;;;;;;9.82;7.38;;;31.70;99.90;;;;;;5031980;28;20508;-56
2022/06/10 10:04:27;;;;;;;8.90;5.00;;;31.30;99.90;;;;;;5050879;28;20429;-57
2022/06/10 10:07:13;;;;;;;8.90;5.30;;;32.30;99.90;;;;;;5051163;28;20389;-56
2022/06/10 10:09:51;;;;;;;9.45;5.10;;;32.30;99.90;;;;;;5049981;28;20377;-56
2022/06/10 10:12:56;;;;;;;8.55;4.55;;;31.20;99.90;;;;;;5049630;28;20404;-57
2022/06/10 10:15:25;;;;;;;8.30;4.70;;;30.50;1.00;;;;;;5047577;28;20386;-59
2022/06/10 10:18:07;;;;;;;8.13;4.28;;;31.20;1.00;;;;;;5051122;28;20447;-56
2022/06/10 10:20:45;;;;;;;8.27;4.20;;;31.10;1.00;;;;;;5049917;28;20468;-58
2022/06/10 10:23:21;;;;;;;8.23;5.50;;;30.10;1.00;;;;;;5050799;28;20416;-58
2022/06/10 10:25:47;;;;;;;10.18;4.10;;;31.00;1.00;;;;;;5046581;28;20422;-58
2022/06/10 10:28:36;;;;;;;8.80;4.40;;;32.10;1.00;;;;;;5047793;28;20394;-61
2022/06/10 10:31:29;;;;;;;8.55;4.28;;;31.00;1.00;;;;;;5044972;28;20413;-59
2022/06/10 10:33:55;;;;;;;9.02;4.45;;;30.70;1.00;;;;;;5042734;28;20505;-58
2022/06/10 10:36:32;;;;;;;6.95;4.20;;;30.50;99.90;;;;;;5044206;28;20465;-61
2022/06/10 10:39:16;;;;;;;8.57;5.57;;;29.90;99.90;;;;;;5043140;28;20400;-61
2022/06/10 10:41:46;;;;;;;8.50;5.30;;;29.60;99.90;;;;;;5046239;28;20381;-61
2022/06/10 10:44:32;;;;;;;8.70;5.30;;;29.10;99.90;;;;;;5050212;28;20413;-61
2022/06/10 10:47:10;;;;;;;8.07;5.10;;;28.70;99.90;;;;;;5050548;28;20393;-62
2022/06/10 10:49:58;;;;;;;8.10;4.57;;;28.50;99.90;;;;;;5045617;28;20428;-60
2022/06/10 10:52:24;;;;;;;8.35;4.60;;;28.10;99.90;;;;;;5032744;28;20556;-61
2022/06/10 10:54:54;;;;;;;7.67;5.90;;;27.90;99.90;;;;;;5047606;28;20417;-61
2022/06/10 10:57:36;;;;;;;10.90;5.70;;;27.80;99.90;;;;;;5048403;28;20549;-60
2022/06/10 11:00:11;;;;;;;11.60;6.03;;;27.50;99.90;;;;;;5049736;28;20476;-61
2022/06/10 11:02:40;;;;;;;9.82;6.38;;;27.20;99.90;;;;;;5048601;28;20665;-60
2022/06/10 11:05:20;;;;;;;10.23;6.32;;;26.90;99.90;;;;;;5046907;28;20397;-62
2022/06/10 11:07:46;;;;;;;9.07;6.10;;;26.80;99.90;;;;;;5046872;28;20393;-63
2022/06/10 11:10:25;;;;;;;10.77;6.00;;;27.30;99.90;;;;;;5046698;28;20385;-62
2022/06/10 11:12:51;;;;;;;11.30;6.43;;;27.90;99.90;;;;;;5047404;28;20409;-59
2022/06/10 11:15:27;;;;;;;9.15;5.97;;;28.20;99.90;;;;;;5048657;28;20374;-56
2022/06/10 11:17:54;;;;;;;9.85;5.90;;;28.00;99.90;;;;;;5048347;28;20542;-62
2022/06/10 11:20:31;;;;;;;12.13;6.60;;;28.20;99.90;;;;;;5048306;28;20378;-61
2022/06/10 11:23:16;;;;;;;9.00;5.40;;;28.40;99.90;;;;;;5048598;28;20960;-62
2022/06/10 11:25:41;;;;;;;8.70;5.80;;;27.90;99.90;;;;;;5048872;28;20390;-60
2022/06/10 11:28:23;;;;;;;9.13;5.97;;;27.30;99.90;;;;;;5048945;28;20458;-61
2022/06/10 11:30:49;;;;;;;8.60;5.60;;;26.70;99.90;;;;;;5047408;28;20742;-61
2022/06/10 11:33:38;;;;;;;10.18;6.00;;;26.70;99.90;;;;;;5029006;28;20806;-57
2022/06/10 11:36:11;;;;;;;10.20;6.40;;;26.60;99.90;;;;;;5045046;28;20393;-62
2022/06/10 11:38:51;;;;;;;9.75;5.80;;;26.60;99.90;;;;;;5046620;28;20454;-63
2022/06/10 11:41:56;;;;;;;10.35;6.13;;;27.10;99.90;;;;;;5043486;28;20399;-56
2022/06/10 11:44:23;;;;;;;10.07;6.10;;;27.60;99.90;;;;;;5026589;28;20420;-60
2022/06/10 11:47:09;;;;;;;10.80;5.45;;;27.70;99.90;;;;;;5047389;28;20455;-60
2022/06/10 11:49:51;;;;;;;12.03;6.07;;;27.70;99.90;;;;;;5025135;28;20410;-62
2022/06/10 11:52:33;;;;;;;8.80;5.00;;;28.00;99.90;;;;;;5043484;28;20443;-56
2022/06/10 11:55:26;;;;;;;9.93;5.53;;;27.90;99.90;;;;;;5046156;28;20389;-58
2022/06/10 12:01:26;;;;;;;9.13;6.00;;;27.30;99.90;;;;;;4983318;28;20410;-62
2022/06/10 12:04:06;;;;;;;10.15;6.70;;;27.20;99.90;;;;;;5030581;28;20603;-60
2022/06/10 12:06:43;;;;;;;8.90;6.20;;;26.80;99.90;;;;;;5046753;28;20410;-59
2022/06/10 12:09:36;;;;;;;9.00;6.00;;;26.80;99.90;;;;;;5047731;28;20561;-58
2022/06/10 12:12:14;;;;;;;9.50;5.80;;;26.70;99.90;;;;;;5047281;28;20413;-59
2022/06/10 12:14:47;;;;;;;8.40;5.60;;;26.80;99.90;;;;;;5045792;28;20413;-58
2022/06/10 12:17:47;;;;;;;9.65;6.35;;;26.80;99.90;;;;;;5047828;28;20476;-61
2022/06/10 12:20:41;;;;;;;8.68;5.90;;;26.10;99.90;;;;;;5017217;28;20776;-57
2022/06/10 12:23:28;;;;;;;9.57;6.15;;;26.20;99.90;;;;;;5035421;28;20903;-61
2022/06/10 12:26:10;;;;;;;10.40;6.97;;;26.10;99.90;;;;;;5046488;28;20466;-58
2022/06/10 12:28:51;;;;;;;9.82;7.80;;;26.60;99.90;;;;;;5047195;28;21001;-60
2022/06/10 12:31:39;;;;;;;9.18;7.13;;;26.80;99.90;;;;;;5048836;28;20408;-55
2022/06/10 12:34:19;;;;;;;9.30;7.10;;;27.20;99.90;;;;;;5046575;28;20425;-59
2022/06/10 12:36:51;;;;;;;12.88;6.78;;;27.40;99.90;;;;;;5048854;28;20420;-59
2022/06/10 12:39:30;;;;;;;8.90;6.60;;;27.30;99.90;;;;;;5047480;28;20488;-55
2022/06/10 12:42:06;;;;;;;9.70;6.70;;;27.40;99.90;;;;;;5051379;28;20750;-57
2022/06/10 12:44:37;;;;;;;9.35;6.13;;;27.40;99.90;;;;;;5044345;28;20401;-61
2022/06/10 12:47:07;;;;;;;9.60;6.83;;;27.20;99.90;;;;;;5047320;28;20397;-59
2022/06/10 12:49:42;;;;;;;9.20;6.30;;;26.80;99.90;;;;;;5049798;28;20456;-61
2022/06/10 12:52:58;;;;;;;9.10;6.45;;;26.90;99.90;;;;;;5050641;28;20962;-61
2022/06/10 12:55:36;;;;;;;8.48;6.13;;;27.10;99.90;;;;;;4965084;28;20404;-58
2022/06/10 12:58:03;;;;;;;9.20;6.60;;;27.50;99.90;;;;;;4960924;28;20971;-61
2022/06/10 13:00:43;;;;;;;9.03;6.47;;;27.70;99.90;;;;;;5013094;28;20397;-66
2022/06/10 13:03:11;;;;;;;8.18;6.28;;;28.10;99.90;;;;;;5052188;28;20405;-63
2022/06/10 13:05:37;;;;;;;11.40;7.20;;;28.20;99.90;;;;;;5049649;28;20381;-65
2022/06/10 13:08:32;;;;;;;10.50;7.50;;;27.50;99.90;;;;;;5051415;28;20403;-62
2022/06/10 13:10:58;;;;;;;10.00;7.40;;;27.40;99.90;;;;;;5050948;28;20428;-64
2022/06/10 13:13:25;;;;;;;9.27;6.85;;;27.70;99.90;;;;;;5049549;28;20402;-65
2022/06/10 13:16:12;;;;;;;9.32;6.88;;;27.60;99.90;;;;;;5048403;28;20763;-62
2022/06/10 13:18:38;;;;;;;9.68;4.80;;;27.80;99.90;;;;;;5049904;28;20451;-59
2022/06/10 13:21:14;;;;;;;9.45;6.10;;;27.70;99.90;;;;;;5051272;28;20454;-63
2022/06/10 13:23:48;;;;;;;7.97;6.28;;;27.50;99.90;;;;;;5049846;28;20875;-60
2022/06/10 13:26:18;;;;;;;9.10;6.10;;;27.40;99.90;;;;;;5051776;28;20863;-61
2022/06/10 13:28:45;;;;;;;9.35;6.07;;;28.10;99.90;;;;;;5032856;28;20421;-65
2022/06/10 13:31:14;;;;;;;9.73;6.43;;;27.10;99.90;;;;;;5051427;28;20713;-62